Cedar City, Utah Weather observations

Data are for observation ending at time listed.
 Day   Time    Ave.   Ave.  Ave.  Vector   Max.   Stn.    Total    Solar   Ave.  
  of    of     Air    Rel.  Wind   Wind    Wind   Baro.  Precip.   Rad.    Soil  
Year   Day     Temp.  Hum.  Speed  Dir.    Gust   Pres.                    Temp. 
2014   (MST)    F      %     mph   deg.    mph     mb.     in.     W/m2     F   
------------------------------------------------------------------------------
 209   16:20   78.7    39    5.3   275     16.7   828.9    0.00     322    74.3
 209   16:30   78.9    39    3.7   286      8.6   828.9    0.00     299    74.4
 209   16:40   78.9    38    3.1   259      7.2   828.9    0.00     285    74.5
 209   16:50   79.0    36    3.3   286      8.3   828.8    0.00     251    74.6
 209   17:00   79.5    36    2.8   261      8.1   828.7    0.00     252    74.7
 209   17:10   79.4    35    6.0   264     16.2   828.6    0.00     293    74.8
 209   17:20   77.9    36    6.0   270     13.7   828.6    0.00     201    74.9
 209   17:30   77.3    35    4.9   266     10.8   828.6    0.00     136    74.9
 209   17:40   76.6    37    2.8   261      9.5   828.6    0.00      81    75.1
 209   17:50   76.3    39    2.6   200      8.7   828.6    0.00      55    75.1
 209   18:00   75.2    41    2.7   192      7.5   828.8    0.00      31    75.2
 209   18:10   71.7    60    3.7   130     10.1   828.9    0.02      32    75.2
 209   18:20   69.6    61    4.8   116     14.8   828.7    0.00      72    75.2
 209   18:30   69.9    63    4.9    96      9.7   828.6    0.00      99    75.3
 209   18:40   68.8    64    6.2    95     10.4   828.6    0.00      65    75.4
 209   18:50   68.7    64    2.6    99      7.4   828.9    0.00      17    75.4
 209   19:00   67.7    65    3.6   272      9.2   829.1    0.03      10    75.4
 209   19:10   65.4    66    5.2   288     12.5   829.0    0.04       6    75.3
 209   19:20   64.6    77    3.0   123      9.4   828.9    0.00       4    75.3
 209   19:30   65.3    76    2.5   119      5.8   828.9    0.00       3    75.3
 209   19:40   66.3    68    3.5   122      7.1   828.9    0.01       2    75.3
 209   19:50   67.0    67    3.4   107      6.4   828.8    0.00       0    75.2
 209   20:00   67.0    68    2.6   107      6.6   828.8    0.00       0    75.2
 209   20:10   67.3    67    3.0   105      7.2   828.8    0.00       0    75.1
 209   20:20   67.5    66    3.2   110      6.5   828.9    0.00       0    75.0
 209   20:30   67.4    67    2.7   120      4.8   829.0    0.00       0    75.0
 209   20:40   67.8    64    2.9    98      6.4   829.1    0.00       0    74.9
 209   20:50   68.3    62    3.8    98      7.7   829.2    0.00       0    74.8
 209   21:00   68.8    61    4.2    90      7.0   829.3    0.00       0    74.8
 209   21:10   68.8    60    4.2    94      7.5   829.3    0.00       0    74.6
 209   21:20   68.4    61    4.0    94      6.1   829.3    0.00       0    74.5
 209   21:30   68.2    61    3.5    96      7.7   829.4    0.00       0    74.4
 209   21:40   68.0    61    3.2    96      6.8   829.5    0.00       0    74.3
 209   21:50   67.8    62    2.8    98      7.6   829.4    0.00       0    74.2
 209   22:00   67.2    62    3.9   100      8.8   829.4    0.00       0    74.1
 209   22:10   66.7    63    3.5    95      6.1   829.4    0.00       0    74.0
 209   22:20   66.5    64    3.7    94      6.6   829.4    0.00       0    74.0
 209   22:30   66.2    66    3.6    94      7.5   829.4    0.00       0    73.9
 209   22:40   65.5    68    2.3   111      5.6   829.3    0.00       0    73.8
 209   22:50   65.2    69    1.5   124      4.3   829.3    0.00       0    73.7
 209   23:00   65.4    67    3.1    98      5.8   829.3    0.00       0    73.7
 209   23:10   65.4    66    3.9    98      6.9   829.2    0.00       0    73.6
 209   23:20   65.1    67    4.2    94      7.7   829.2    0.00       0    73.5
 209   23:30   64.9    68    4.4    96      7.7   829.1    0.00       0    73.4
 209   23:40   65.0    66    4.0    98      8.2   829.1    0.00       0    73.3
 209   23:50   65.2    65    3.4   109      6.7   829.0    0.00       0    73.2
 210    0:00   65.1    65    3.9   102      7.9   828.9    0.00       0    73.1
 210    0:10   65.2    64    3.7   103      5.9   828.8    0.00       0    73.0
 210    0:20   65.0    64    2.9   104      5.6   828.8    0.00       0    72.9
 210    0:30   64.7    66    1.4   124      3.9   828.9    0.00       0    72.8
 210    0:40   64.2    67    1.0   150      4.2   829.0    0.00       0    72.7
 210    0:50   64.1    66    2.3   108      4.7   828.9    0.00       0    72.6
 210    1:00   64.4    64    2.7   102      5.3   828.9    0.00       0    72.6
 210    1:10   64.5    64    3.8    95      5.8   828.8    0.00       0    72.5
 210    1:20   64.3    64    3.4    93      6.6   828.9    0.00       0    72.4
 210    1:30   64.5    63    3.8    92      5.7   828.9    0.00       0    72.3
 210    1:40   64.6    62    3.6    96      7.9   829.0    0.00       0    72.2
 210    1:50   64.6    62    3.9    97      7.4   829.0    0.00       0    72.1
 210    2:00   64.2    63    3.8    95      6.8   829.0    0.00       0    72.1
 210    2:10   64.2    63    3.7    99      7.1   828.9    0.00       0    72.0
 210    2:20   64.1    63    3.9   101      6.8   828.8    0.00       0    71.9
 210    2:30   64.1    63    3.9    98      7.5   828.7    0.00       0    71.8
 210    2:40   64.0    63    4.7   100      9.6   828.6    0.00       0    71.7
 210    2:50   64.0    62    4.7    99      9.3   828.6    0.00       0    71.6
 210    3:00   63.9    63    4.3   102     10.5   828.6    0.00       0    71.6
 210    3:10   64.1    62    5.1    98     10.3   828.5    0.00       0    71.5
 210    3:20   64.4    61    5.3   102      9.4   828.5    0.00       0    71.4
 210    3:30   64.4    61    4.5   104      8.4   828.5    0.00       0    71.4
 210    3:40   64.4    62    3.5   110      7.7   828.5    0.00       0    71.3
 210    3:50   64.5    61    3.1   108      5.9   828.5    0.00       0    71.2
 210    4:00   64.6    61    2.0   111      6.6   828.6    0.00       0    71.1
 210    4:10   64.4    62    1.8   115      3.7   828.7    0.00       0    71.1
 210    4:20   64.6    62    3.1    94      5.7   828.7    0.00       0    71.0
 210    4:30   64.4    62    3.6    94      6.1   828.7    0.00       0    71.0
 210    4:40   64.1    62    3.8    93      6.8   828.7    0.00       0    70.9
 210    4:50   63.8    63    2.9   101      5.1   828.7    0.00       0    70.8
 210    5:00   63.6    63    2.7   103      4.7   828.6    0.00       0    70.8
 210    5:10   63.4    64    2.7   103      5.2   828.6    0.00       0    70.7
 210    5:20   63.3    64    3.3   103      6.9   828.6    0.00       0    70.7
 210    5:30   63.3    63    3.3   101      5.3   828.6    0.00       0    70.6
 210    5:40   63.4    63    3.2   104      6.9   828.6    0.00       1    70.6
 210    5:50   63.1    64    2.2   126      6.1   828.6    0.00       3    70.5
 210    6:00   63.0    64    2.8   106      6.4   828.7    0.00       9    70.5
 210    6:10   63.1    64    3.3    96      5.4   828.7    0.00      16    70.4
 210    6:20   63.2    63    3.3    96      4.9   828.7    0.00      28    70.4
 210    6:30   63.9    62    3.9    86      6.6   828.7    0.00      45    70.4
 210    6:40   64.9    60    3.2    84      5.0   828.7    0.00     119    70.3
 210    6:50   67.4    57    2.4    90      4.9   828.6    0.00     196    70.3
 210    7:00   69.5    54    1.8   106      3.7   828.7    0.00     205    70.3
 210    7:10   72.3    50    1.1   250      3.1   828.7    0.00     249    70.3
 210    7:20   71.5    52    0.8   280      2.7   828.8    0.00     280    70.3
 210    7:30   74.9    47    0.1   169      1.7   829.0    0.00     308    70.3
 210    7:40   76.8    43    0.5   316      1.5   829.1    0.00     331    70.3
 210    7:50   74.1    47    0.4   158      1.5   829.1    0.00     124    70.3
 210    8:00   72.7    51    1.4    93      3.2   829.1    0.00     221    70.3
 210    8:10   73.3    50    1.2   110      2.9   829.2    0.00     411    70.4
 210    8:20   77.7    47    1.0   158      2.6   829.2    0.00     410    70.5
 210    8:30   77.2    43    0.5    87      2.6   829.3    0.00     462    70.6
 210    8:40   78.6    41    0.7   101      2.9   829.3    0.00     530    70.6
 210    8:50   78.9    42    0.7   189      1.6   829.3    0.00     540    70.7
 210    9:00   80.2    42    0.8   206      3.8   829.2    0.00     587    70.8
 210    9:10   77.4    45    2.1    22      5.5   829.2    0.00     651    70.9
 210    9:20   78.4    45    0.9   347      4.7   829.1    0.00     746    71.1
 210    9:30   78.7    44    2.9   265      8.8   828.9    0.00     650    71.2
 210    9:40   78.9    43    2.2   246      6.7   828.8    0.00     712    71.3
 210    9:50   79.1    43    3.3   248      9.5   828.8    0.00     584    71.4
 210   10:00   76.9    44    3.2   221      7.4   828.9    0.00     191    71.5
 210   10:10   75.2    46    3.0   269      7.4   828.9    0.00     147    71.6
 210   10:20   74.9    46    2.8   252      8.6   828.8    0.00     236    71.7
 210   10:30   77.1    43    3.0   239      7.3   828.7    0.00     649    71.8
 210   10:40   79.2    41    3.5   216      9.2   828.4    0.00     889    72.1
 210   10:50   81.3    39    3.7   200     11.0   828.3    0.00     983    72.2
 210   11:00   82.6    36    3.1   230      9.3   828.2    0.00     695    72.3
 210   11:10   78.0    39    3.7   262     14.0   828.3    0.00     181    72.3
 210   11:20   76.7    40    3.5   257      9.8   828.2    0.00     199    72.3
 210   11:30   76.9    39    3.4   232      8.1   828.0    0.00     203    72.4
 210   11:40   74.8    46    4.3   287      9.9   828.2    0.00     194    72.5
 210   11:50   72.6    51    6.1   290     20.9   828.4    0.00     104    72.6
 210   12:00   68.4    64    6.0   295     13.5   828.5    0.00     171    72.6
 210   12:10   68.1    66    3.1   314      7.5   828.7    0.00     233    72.7
 210   12:20   68.7    66    3.6    99      6.4   828.7    0.00     253    72.8
 210   12:30   69.6    61    3.1    80      7.2   828.5    0.00     280    72.9
 210   12:40   70.9    57    1.8    98      5.7   828.3    0.00     422    73.0
 210   12:50   73.5    54    3.4    92      6.9   828.1    0.00     886    73.1
 210   13:00   74.7    47    2.0    67      4.9   828.2    0.00     749    73.1
 210   13:10   76.4    47    1.7    81      5.2   828.0    0.00    1162    73.2
 210   13:20   79.5    42    0.5   250      3.5   827.9    0.00     906    73.3
 210   13:30   79.2    43    0.7   133      4.2   827.7    0.00     748    73.3
 210   13:40   79.7    41    0.5   265      4.0   827.7    0.00     320    73.2
 210   13:50   76.4    44    4.8   279     10.4   827.9    0.00     202    73.2
 210   14:00   74.2    48    3.3   246     10.1   828.0    0.00     122    73.3
 210   14:10   72.1    57    2.4   230      7.9   828.2    0.02      88    73.3
 210   14:20   68.9    69    1.4   206      5.5   828.3    0.02      71    73.4
 210   14:30   66.5    78    2.9   100      6.1   828.0    0.06      64    73.5
 210   14:40   65.4    82    2.7    96      4.8   827.8    0.02      50    73.5
 210   14:50   66.0    77    4.1    78     10.9   827.6    0.00     148    73.6
 210   15:00   67.0    72    3.5    67      9.0   827.6    0.00      86    73.6
 210   15:10   66.8    74    3.9    54      8.0   827.6    0.00     101    73.6
 210   15:20   67.3    73    5.0    66      8.6   827.5    0.00     311    73.6
 210   15:30   68.2    73    4.3   103      8.7   827.4    0.00     220    73.6
 210   15:40   67.6    75    2.8   106      7.3   827.4    0.00      39    73.6
 210   15:50   67.4    75    2.4   136     11.2   827.3    0.09      69    73.5
 210   16:00   64.8    80    3.5   117      9.0   827.1    0.01     295    73.5
 210   16:10   66.7    74    4.3   101     11.8   827.0    0.00     236    73.5

Return to Cedar City, Utah graphs page.


Western Regional Climate Center,wrcc@dri.edu